createdAt,value
2018-08-13T00:00:01.178Z,100056.83
2018-08-13T00:05:05.270Z,100049.75
2018-08-13T00:10:09.322Z,100049.00
2018-08-13T00:15:12.946Z,100043.01
2018-08-13T00:20:16.864Z,100033.76
2018-08-13T00:25:20.828Z,100030.80
2018-08-13T00:30:29.214Z,100015.12
2018-08-13T00:35:32.833Z,100011.72
2018-08-13T00:40:36.623Z,100009.55
2018-08-13T00:45:40.281Z,100011.09
2018-08-13T00:50:43.944Z,100015.63
2018-08-13T00:55:47.640Z,100006.63
2018-08-13T01:00:51.477Z,99985.00
2018-08-13T01:05:55.071Z,99983.47
2018-08-13T01:10:59.661Z,99980.89
2018-08-13T01:16:03.404Z,99975.27
2018-08-13T01:21:07.061Z,99981.52
2018-08-13T01:26:10.598Z,99969.63
2018-08-13T01:31:15.072Z,99972.55
2018-08-13T01:36:18.684Z,99967.50
2018-08-13T01:41:22.255Z,99961.59
2018-08-13T01:46:25.818Z,99955.82
2018-08-13T01:51:29.372Z,99943.50
2018-08-13T01:56:32.892Z,99937.76
2018-08-13T02:01:36.724Z,99931.18
2018-08-13T02:06:40.765Z,99941.16
2018-08-13T02:11:44.581Z,99933.27
2018-08-13T02:16:48.109Z,99928.00
2018-08-13T02:21:51.717Z,99923.77
2018-08-13T02:26:55.644Z,99922.75
2018-08-13T02:31:59.254Z,99924.91
2018-08-13T02:37:02.890Z,99913.15
2018-08-13T02:42:06.577Z,99917.73
2018-08-13T02:47:10.443Z,99911.38
2018-08-13T02:52:14.694Z,99908.09
2018-08-13T02:57:18.258Z,99906.78
2018-08-13T03:02:22.426Z,99900.75
2018-08-13T03:07:26.062Z,99890.70
2018-08-13T03:12:29.781Z,99887.77
2018-08-13T03:17:33.308Z,99894.44
2018-08-13T03:22:37.638Z,99895.97
2018-08-13T03:27:41.257Z,99891.30
2018-08-13T03:32:45.105Z,99887.13
2018-08-13T03:37:48.664Z,99871.58
2018-08-13T03:42:52.457Z,99862.19
2018-08-13T03:47:57.088Z,99861.86
2018-08-13T03:53:00.745Z,99857.95
2018-08-13T03:58:04.371Z,99857.34
2018-08-13T04:03:08.838Z,99850.91
2018-08-13T04:08:13.202Z,99837.45
2018-08-13T04:13:16.872Z,99832.92
2018-08-13T04:18:20.444Z,99825.59
2018-08-13T04:23:24.315Z,99811.09
2018-08-13T04:28:27.879Z,99810.33
2018-08-13T04:33:33.439Z,99816.98
2018-08-13T04:38:37.136Z,99810.92
2018-08-13T04:43:40.771Z,99803.58
2018-08-13T04:48:44.441Z,99800.45
2018-08-13T04:53:48.049Z,99801.89
2018-08-13T04:58:52.351Z,99794.87
2018-08-13T05:03:56.033Z,99801.55
2018-08-13T05:08:59.654Z,99795.02
2018-08-13T05:14:03.597Z,99804.95
2018-08-13T05:19:07.249Z,99813.80
2018-08-13T05:24:10.903Z,99800.90
2018-08-13T05:29:14.430Z,99801.49
2018-08-13T05:34:18.022Z,99790.67
2018-08-13T05:39:21.674Z,99799.38
2018-08-13T05:44:25.970Z,99818.99
2018-08-13T05:49:29.510Z,99821.27
2018-08-13T05:54:33.160Z,99832.13
2018-08-13T05:59:36.835Z,99832.70
2018-08-13T06:04:40.434Z,99834.41
2018-08-13T06:09:44.017Z,99823.29
2018-08-13T06:14:47.648Z,99826.91
2018-08-13T06:19:51.403Z,99829.69
2018-08-13T06:24:55.526Z,99838.58
2018-08-13T06:29:59.196Z,99824.94
2018-08-13T06:35:02.858Z,99832.64
2018-08-13T06:40:07.010Z,99843.51
2018-08-13T06:45:11.504Z,99841.73
2018-08-13T06:50:15.329Z,99851.45
2018-08-13T06:55:18.889Z,99838.98
2018-08-13T07:00:33.718Z,99855.42
2018-08-13T07:05:37.291Z,99862.66
2018-08-13T07:16:05.607Z,99891.19
2018-08-13T07:21:10.185Z,99895.83
2018-08-13T07:26:13.849Z,99909.36
2018-08-13T07:31:17.890Z,99920.42
2018-08-13T07:36:21.538Z,99921.00
2018-08-13T07:41:25.292Z,99924.42
2018-08-13T07:46:28.857Z,99918.83
2018-08-13T07:51:32.656Z,99906.90
2018-08-13T07:56:36.369Z,99908.48
2018-08-13T08:01:39.942Z,99905.20
2018-08-13T08:06:43.600Z,99880.44
2018-08-13T08:11:47.851Z,99879.79
2018-08-13T08:16:51.478Z,99880.16
2018-08-13T08:21:55.094Z,99878.09
2018-08-13T08:26:58.724Z,99865.25
2018-08-13T08:32:02.441Z,99871.03
2018-08-13T08:37:06.257Z,99878.66
2018-08-13T08:42:10.289Z,99884.98
2018-08-13T08:47:14.260Z,99879.00
2018-08-13T08:52:19.060Z,99876.55
2018-08-13T08:57:23.017Z,99880.53
2018-08-13T09:02:26.641Z,99882.56
2018-08-13T09:07:30.222Z,99891.83
2018-08-13T09:12:36.549Z,99900.80
2018-08-13T09:17:53.191Z,99886.09
2018-08-13T09:23:08.089Z,99916.50
2018-08-13T09:28:23.045Z,99934.35
2018-08-13T09:33:37.919Z,99920.92
2018-08-13T09:38:42.465Z,99921.34
2018-08-13T09:43:46.845Z,99908.80
2018-08-13T09:48:51.028Z,99903.77
2018-08-13T09:53:54.871Z,99906.73
2018-08-13T09:58:58.564Z,99915.29
2018-08-13T10:04:02.234Z,99890.59
2018-08-13T10:09:09.830Z,99888.48
2018-08-13T10:14:13.567Z,99889.11
2018-08-13T10:19:20.419Z,99895.55
2018-08-13T10:24:25.254Z,99883.40
2018-08-13T10:29:29.650Z,99886.26
2018-08-13T10:34:35.072Z,99880.37
2018-08-13T10:39:38.765Z,99874.36
2018-08-13T10:44:44.272Z,99879.33
2018-08-13T10:49:48.036Z,99871.80
2018-08-13T10:54:51.757Z,99860.84
2018-08-13T10:59:56.185Z,99868.18
2018-08-13T11:04:59.833Z,99866.85
2018-08-13T11:10:07.828Z,99862.19
2018-08-13T11:15:17.355Z,99842.76
2018-08-13T11:20:21.570Z,99838.33
2018-08-13T11:25:25.352Z,99840.59
2018-08-13T11:30:30.178Z,99838.77
2018-08-13T11:35:34.109Z,99834.24
2018-08-13T11:40:37.978Z,99829.31
2018-08-13T11:45:42.019Z,99812.17
2018-08-13T11:50:46.174Z,99816.25
2018-08-13T11:55:49.844Z,99799.53
2018-08-13T12:00:53.628Z,99811.82
2018-08-13T12:05:59.075Z,99805.11
2018-08-13T12:11:03.768Z,99806.02
2018-08-13T12:16:08.217Z,99811.42
2018-08-13T12:21:12.877Z,99802.81
2018-08-13T12:26:16.617Z,99801.19
2018-08-13T12:31:20.393Z,99797.88
2018-08-13T12:36:24.115Z,99798.36
2018-08-13T12:41:27.777Z,99796.98
2018-08-13T12:46:31.425Z,99803.50
2018-08-13T12:51:35.102Z,99790.92
2018-08-13T12:56:39.351Z,99796.30
2018-08-13T13:01:43.102Z,99781.52
2018-08-13T13:06:46.869Z,99788.74
2018-08-13T13:11:50.398Z,99786.50
2018-08-13T13:16:54.125Z,99783.86
2018-08-13T13:21:57.688Z,99784.27
2018-08-13T13:27:01.358Z,99782.77
2018-08-13T13:32:05.710Z,99775.62
2018-08-13T13:37:09.339Z,99784.15
2018-08-13T13:42:13.429Z,99771.51
2018-08-13T13:47:17.084Z,99771.51
2018-08-13T13:52:20.752Z,99766.95
2018-08-13T13:57:24.517Z,99757.08
2018-08-13T14:02:28.163Z,99751.64
2018-08-13T14:07:31.931Z,99733.25
2018-08-13T14:12:35.568Z,99759.25
2018-08-13T14:17:40.752Z,99751.92
2018-08-13T14:22:46.189Z,99755.11
2018-08-13T14:27:49.936Z,99747.06
2018-08-13T14:32:54.343Z,99771.97
2018-08-13T14:37:58.138Z,99766.95
2018-08-13T14:43:01.890Z,99768.72
2018-08-13T14:48:06.181Z,99788.86
2018-08-13T14:53:10.295Z,99788.58
2018-08-13T14:58:14.600Z,99788.86
2018-08-13T15:03:18.228Z,99792.03
2018-08-13T15:08:22.035Z,99790.27
2018-08-13T15:13:25.679Z,99794.38
2018-08-13T15:18:29.507Z,99786.58
2018-08-13T15:23:33.133Z,99765.10
2018-08-13T15:28:36.874Z,99759.37
2018-08-13T15:33:40.530Z,99763.38
2018-08-13T15:38:44.147Z,99777.05
2018-08-13T15:43:48.627Z,99806.89
2018-08-13T15:48:53.036Z,99798.94
2018-08-13T15:53:56.603Z,99798.59
2018-08-13T15:59:00.820Z,99786.38
2018-08-13T16:04:04.519Z,99784.56
2018-08-13T16:09:17.965Z,99779.01
2018-08-13T16:14:21.478Z,99783.36
2018-08-13T16:19:25.122Z,99772.53
2018-08-13T16:24:28.838Z,99768.16
2018-08-13T16:29:32.631Z,99769.20
2018-08-13T16:34:36.438Z,99765.95
2018-08-13T16:39:40.989Z,99757.92
2018-08-13T16:44:44.734Z,99760.62
2018-08-13T16:49:48.483Z,99751.92
2018-08-13T16:54:52.470Z,99759.10
2018-08-13T16:59:56.119Z,99760.88
2018-08-13T17:04:59.766Z,99759.80
2018-08-13T17:10:03.373Z,99776.85
2018-08-13T17:15:08.783Z,99779.97
2018-08-13T17:20:15.382Z,99780.61
2018-08-13T17:25:18.990Z,99773.11
2018-08-13T17:30:31.207Z,99762.21
2018-08-13T17:35:35.974Z,99777.77
2018-08-13T17:40:39.735Z,99787.05
2018-08-13T17:45:43.375Z,99805.77
2018-08-13T17:50:47.032Z,99794.44
2018-08-13T17:55:50.704Z,99803.09
2018-08-13T18:00:54.498Z,99809.84
2018-08-13T18:05:58.657Z,99802.70
2018-08-13T18:11:02.339Z,99804.14
2018-08-13T18:16:06.253Z,99814.03
2018-08-13T18:21:09.973Z,99814.33
2018-08-13T18:26:13.673Z,99820.84
2018-08-13T18:31:17.529Z,99830.77
2018-08-13T18:36:21.157Z,99836.86
2018-08-13T18:41:24.857Z,99844.79
2018-08-13T18:46:29.560Z,99857.88
2018-08-13T18:51:34.317Z,99868.72
2018-08-13T18:56:39.198Z,99860.34
2018-08-13T19:01:43.526Z,99863.37
2018-08-13T19:06:48.293Z,99876.50
2018-08-13T19:11:53.323Z,99876.39
2018-08-13T19:16:58.269Z,99884.62
2018-08-13T19:22:04.932Z,99889.74
2018-08-13T19:27:11.767Z,99893.80
2018-08-13T19:32:17.234Z,99898.66
2018-08-13T19:37:20.982Z,99904.86
2018-08-13T19:42:25.392Z,99913.83
2018-08-13T19:47:30.749Z,99916.49
2018-08-13T19:52:35.420Z,99916.43
2018-08-13T19:57:39.875Z,99915.71
2018-08-13T20:02:43.787Z,99921.13
2018-08-13T20:07:49.520Z,99932.31
2018-08-13T20:12:54.232Z,99929.41
2018-08-13T20:17:58.081Z,99932.36
2018-08-13T20:23:03.099Z,99930.95
2018-08-13T20:28:06.948Z,99936.89
2018-08-13T20:33:12.612Z,99938.45
2018-08-13T20:38:16.740Z,99946.69
2018-08-13T20:43:20.580Z,99941.41
2018-08-13T20:48:25.127Z,99940.56
2018-08-13T20:53:29.520Z,99940.38
2018-08-13T20:58:33.094Z,99926.52
2018-08-13T21:03:37.393Z,99933.97
2018-08-13T21:08:41.416Z,99945.64
2018-08-13T21:13:45.210Z,99952.11
2018-08-13T21:18:48.985Z,99951.59
2018-08-13T21:23:53.006Z,99955.17
2018-08-13T21:28:57.630Z,99962.37
2018-08-13T21:34:02.129Z,99956.02
2018-08-13T21:39:07.951Z,99968.91
2018-08-13T21:44:11.892Z,99969.18
2018-08-13T21:49:15.964Z,99967.62
2018-08-13T21:54:19.695Z,99976.22
2018-08-13T21:59:23.375Z,99990.89
2018-08-13T22:04:27.473Z,99994.70
2018-08-13T22:09:31.032Z,100006.65
2018-08-13T22:14:34.832Z,99996.73
2018-08-13T22:19:38.485Z,100002.94
2018-08-13T22:24:53.211Z,100010.53
2018-08-13T22:29:56.886Z,100008.28
2018-08-13T22:35:00.607Z,100017.13
2018-08-13T22:40:04.659Z,100019.44
2018-08-13T22:45:09.160Z,100023.39
2018-08-13T22:50:12.962Z,100029.61
2018-08-13T22:55:17.862Z,100032.83
2018-08-13T23:00:26.745Z,100030.80
2018-08-13T23:05:30.382Z,100039.08
2018-08-13T23:10:34.080Z,100036.95
2018-08-13T23:15:37.833Z,100036.66
2018-08-13T23:20:42.286Z,100038.27
2018-08-13T23:25:46.040Z,100044.44
2018-08-13T23:30:49.626Z,100045.07
2018-08-13T23:35:53.294Z,100055.22
2018-08-13T23:40:57.020Z,100050.23
2018-08-13T23:46:00.719Z,100052.16
2018-08-13T23:51:04.445Z,100067.09
2018-08-13T23:56:08.177Z,100064.07
